sensor_id;sensor_type;location;lat;lon;timestamp;temperature;humidity
72762;SHT30;60886;55.034;73.150;2022-12-29T00:00:29;-16.01;74.49
72762;SHT30;60886;55.034;73.150;2022-12-29T00:02:56;-15.92;74.34
72762;SHT30;60886;55.034;73.150;2022-12-29T00:05:26;-15.82;74.73
72762;SHT30;60886;55.034;73.150;2022-12-29T00:08:03;-15.81;74.63
72762;SHT30;60886;55.034;73.150;2022-12-29T00:10:34;-15.81;74.50
72762;SHT30;60886;55.034;73.150;2022-12-29T00:13:00;-15.72;74.46
72762;SHT30;60886;55.034;73.150;2022-12-29T00:15:45;-15.72;74.58
72762;SHT30;60886;55.034;73.150;2022-12-29T00:18:12;-15.68;74.84
72762;SHT30;60886;55.034;73.150;2022-12-29T00:20:43;-15.64;74.82
72762;SHT30;60886;55.034;73.150;2022-12-29T00:23:44;-15.58;74.45
72762;SHT30;60886;55.034;73.150;2022-12-29T00:26:29;-15.64;74.77
72762;SHT30;60886;55.034;73.150;2022-12-29T00:29:14;-15.65;74.69
72762;SHT30;60886;55.034;73.150;2022-12-29T00:32:02;-15.58;74.84
72762;SHT30;60886;55.034;73.150;2022-12-29T00:34:51;-15.62;74.66
72762;SHT30;60886;55.034;73.150;2022-12-29T00:37:41;-15.61;74.97
72762;SHT30;60886;55.034;73.150;2022-12-29T00:40:27;-15.64;75.48
72762;SHT30;60886;55.034;73.150;2022-12-29T00:43:28;-15.67;74.82
72762;SHT30;60886;55.034;73.150;2022-12-29T00:46:13;-15.62;75.36
72762;SHT30;60886;55.034;73.150;2022-12-29T00:48:49;-15.64;75.15
72762;SHT30;60886;55.034;73.150;2022-12-29T00:51:34;-15.67;75.35
72762;SHT30;60886;55.034;73.150;2022-12-29T00:54:01;-15.61;75.04
72762;SHT30;60886;55.034;73.150;2022-12-29T00:56:37;-15.58;74.22
72762;SHT30;60886;55.034;73.150;2022-12-29T00:59:06;-15.62;74.00
72762;SHT30;60886;55.034;73.150;2022-12-29T01:01:33;-15.60;74.68
72762;SHT30;60886;55.034;73.150;2022-12-29T01:04:00;-15.60;74.25
72762;SHT30;60886;55.034;73.150;2022-12-29T01:06:27;-15.67;74.95
72762;SHT30;60886;55.034;73.150;2022-12-29T01:08:54;-15.67;74.96
72762;SHT30;60886;55.034;73.150;2022-12-29T01:11:47;-15.64;75.32
72762;SHT30;60886;55.034;73.150;2022-12-29T01:14:24;-15.58;74.96
72762;SHT30;60886;55.034;73.150;2022-12-29T01:16:51;-15.50;74.76
72762;SHT30;60886;55.034;73.150;2022-12-29T01:19:18;-15.47;74.50
72762;SHT30;60886;55.034;73.150;2022-12-29T01:21:46;-15.41;74.75
72762;SHT30;60886;55.034;73.150;2022-12-29T01:24:13;-15.36;74.93
72762;SHT30;60886;55.034;73.150;2022-12-29T01:26:40;-15.28;74.63
72762;SHT30;60886;55.034;73.150;2022-12-29T01:29:06;-15.30;74.79
72762;SHT30;60886;55.034;73.150;2022-12-29T01:31:32;-15.30;74.74
72762;SHT30;60886;55.034;73.150;2022-12-29T01:33:59;-15.24;74.25
72762;SHT30;60886;55.034;73.150;2022-12-29T01:36:25;-15.27;74.11
72762;SHT30;60886;55.034;73.150;2022-12-29T01:38:51;-15.30;74.57
72762;SHT30;60886;55.034;73.150;2022-12-29T01:41:25;-15.30;74.18
72762;SHT30;60886;55.034;73.150;2022-12-29T01:43:54;-15.31;74.33
72762;SHT30;60886;55.034;73.150;2022-12-29T01:46:57;-15.33;74.43
72762;SHT30;60886;55.034;73.150;2022-12-29T01:49:27;-15.28;74.34
72762;SHT30;60886;55.034;73.150;2022-12-29T01:52:02;-15.33;74.58
72762;SHT30;60886;55.034;73.150;2022-12-29T01:54:35;-15.30;74.76
72762;SHT30;60886;55.034;73.150;2022-12-29T01:57:06;-15.26;74.45
72762;SHT30;60886;55.034;73.150;2022-12-29T01:59:39;-15.15;74.71
72762;SHT30;60886;55.034;73.150;2022-12-29T02:02:16;-15.28;74.11
72762;SHT30;60886;55.034;73.150;2022-12-29T02:04:44;-15.30;74.56
72762;SHT30;60886;55.034;73.150;2022-12-29T02:07:16;-15.20;74.22
72762;SHT30;60886;55.034;73.150;2022-12-29T02:09:47;-15.23;73.87
72762;SHT30;60886;55.034;73.150;2022-12-29T02:12:16;-15.30;74.20
72762;SHT30;60886;55.034;73.150;2022-12-29T02:14:44;-15.33;74.49
72762;SHT30;60886;55.034;73.150;2022-12-29T02:20:50;-15.31;74.53
72762;SHT30;60886;55.034;73.150;2022-12-29T02:26:48;-15.27;73.55
72762;SHT30;60886;55.034;73.150;2022-12-29T02:29:46;-15.28;73.51
72762;SHT30;60886;55.034;73.150;2022-12-29T02:32:34;-15.28;73.13
72762;SHT30;60886;55.034;73.150;2022-12-29T02:35:14;-15.33;73.43
72762;SHT30;60886;55.034;73.150;2022-12-29T02:38:08;-15.30;73.95
72762;SHT30;60886;55.034;73.150;2022-12-29T02:40:53;-15.30;74.21
72762;SHT30;60886;55.034;73.150;2022-12-29T02:52:54;-15.33;74.76
72762;SHT30;60886;55.034;73.150;2022-12-29T02:55:20;-15.33;74.79
72762;SHT30;60886;55.034;73.150;2022-12-29T02:58:17;-15.26;74.70
72762;SHT30;60886;55.034;73.150;2022-12-29T03:09:46;-15.30;75.43
72762;SHT30;60886;55.034;73.150;2022-12-29T03:12:33;-15.37;75.94
72762;SHT30;60886;55.034;73.150;2022-12-29T03:15:27;-15.36;76.26
72762;SHT30;60886;55.034;73.150;2022-12-29T03:18:51;-15.26;76.21
72762;SHT30;60886;55.034;73.150;2022-12-29T03:24:13;-15.23;75.66
72762;SHT30;60886;55.034;73.150;2022-12-29T03:26:53;-15.27;75.90
72762;SHT30;60886;55.034;73.150;2022-12-29T03:29:33;-15.26;75.88
72762;SHT30;60886;55.034;73.150;2022-12-29T03:32:07;-15.15;75.47
72762;SHT30;60886;55.034;73.150;2022-12-29T03:34:39;-15.13;75.11
72762;SHT30;60886;55.034;73.150;2022-12-29T03:37:23;-15.13;74.96
72762;SHT30;60886;55.034;73.150;2022-12-29T03:39:52;-15.10;74.77
72762;SHT30;60886;55.034;73.150;2022-12-29T03:42:23;-15.17;75.24
72762;SHT30;60886;55.034;73.150;2022-12-29T03:44:54;-15.09;75.56
72762;SHT30;60886;55.034;73.150;2022-12-29T03:47:23;-15.05;75.52
72762;SHT30;60886;55.034;73.150;2022-12-29T03:49:58;-15.07;75.63
72762;SHT30;60886;55.034;73.150;2022-12-29T03:52:24;-15.10;75.69
72762;SHT30;60886;55.034;73.150;2022-12-29T03:54:52;-15.07;75.38
72762;SHT30;60886;55.034;73.150;2022-12-29T03:57:27;-15.03;75.36
72762;SHT30;60886;55.034;73.150;2022-12-29T04:00:01;-15.02;75.34
72762;SHT30;60886;55.034;73.150;2022-12-29T04:02:40;-14.97;75.21
72762;SHT30;60886;55.034;73.150;2022-12-29T04:05:12;-14.95;74.76
72762;SHT30;60886;55.034;73.150;2022-12-29T04:07:38;-14.93;74.56
72762;SHT30;60886;55.034;73.150;2022-12-29T04:10:05;-14.95;74.79
72762;SHT30;60886;55.034;73.150;2022-12-29T04:12:34;-15.00;74.73
72762;SHT30;60886;55.034;73.150;2022-12-29T04:15:03;-14.96;74.74
72762;SHT30;60886;55.034;73.150;2022-12-29T04:17:35;-14.91;74.60
72762;SHT30;60886;55.034;73.150;2022-12-29T04:20:03;-14.96;74.84
72762;SHT30;60886;55.034;73.150;2022-12-29T04:23:02;-14.86;74.75
72762;SHT30;60886;55.034;73.150;2022-12-29T04:25:30;-14.83;74.29
72762;SHT30;60886;55.034;73.150;2022-12-29T04:27:58;-14.83;74.21
72762;SHT30;60886;55.034;73.150;2022-12-29T04:30:43;-14.82;74.13
72762;SHT30;60886;55.034;73.150;2022-12-29T04:33:24;-14.79;73.82
72762;SHT30;60886;55.034;73.150;2022-12-29T04:35:53;-14.79;73.61
72762;SHT30;60886;55.034;73.150;2022-12-29T04:38:22;-14.68;73.45
72762;SHT30;60886;55.034;73.150;2022-12-29T04:41:00;-14.62;73.38
72762;SHT30;60886;55.034;73.150;2022-12-29T04:43:32;-14.61;73.08
72762;SHT30;60886;55.034;73.150;2022-12-29T04:46:21;-14.71;73.19
72762;SHT30;60886;55.034;73.150;2022-12-29T04:48:57;-14.76;74.05
72762;SHT30;60886;55.034;73.150;2022-12-29T04:51:46;-14.68;74.08
72762;SHT30;60886;55.034;73.150;2022-12-29T04:54:20;-14.64;74.00
72762;SHT30;60886;55.034;73.150;2022-12-29T04:57:05;-14.51;73.84
72762;SHT30;60886;55.034;73.150;2022-12-29T04:59:32;-14.51;74.01
72762;SHT30;60886;55.034;73.150;2022-12-29T05:01:59;-14.47;74.06
72762;SHT30;60886;55.034;73.150;2022-12-29T05:04:28;-14.41;73.41
72762;SHT30;60886;55.034;73.150;2022-12-29T05:06:54;-14.37;73.08
72762;SHT30;60886;55.034;73.150;2022-12-29T05:09:21;-14.27;73.13
72762;SHT30;60886;55.034;73.150;2022-12-29T05:11:50;-14.21;72.76
72762;SHT30;60886;55.034;73.150;2022-12-29T05:14:16;-14.19;72.93
72762;SHT30;60886;55.034;73.150;2022-12-29T05:16:45;-14.26;73.13
72762;SHT30;60886;55.034;73.150;2022-12-29T05:19:22;-14.28;73.53
72762;SHT30;60886;55.034;73.150;2022-12-29T05:21:49;-14.13;73.37
72762;SHT30;60886;55.034;73.150;2022-12-29T05:24:16;-14.02;73.05
72762;SHT30;60886;55.034;73.150;2022-12-29T05:26:42;-14.03;72.66
72762;SHT30;60886;55.034;73.150;2022-12-29T05:29:35;-14.00;72.68
72762;SHT30;60886;55.034;73.150;2022-12-29T05:32:02;-14.03;72.62
72762;SHT30;60886;55.034;73.150;2022-12-29T05:34:29;-13.99;72.77
72762;SHT30;60886;55.034;73.150;2022-12-29T05:37:05;-13.99;72.48
72762;SHT30;60886;55.034;73.150;2022-12-29T05:39:32;-13.94;72.38
72762;SHT30;60886;55.034;73.150;2022-12-29T05:42:01;-13.87;72.44
72762;SHT30;60886;55.034;73.150;2022-12-29T05:44:57;-13.82;72.01
72762;SHT30;60886;55.034;73.150;2022-12-29T05:47:41;-13.86;71.55
72762;SHT30;60886;55.034;73.150;2022-12-29T05:50:19;-13.76;71.94
72762;SHT30;60886;55.034;73.150;2022-12-29T05:53:04;-13.73;72.17
72762;SHT30;60886;55.034;73.150;2022-12-29T05:55:36;-13.70;71.65
72762;SHT30;60886;55.034;73.150;2022-12-29T05:58:02;-13.65;71.66
72762;SHT30;60886;55.034;73.150;2022-12-29T06:00:29;-13.59;71.63
72762;SHT30;60886;55.034;73.150;2022-12-29T06:02:55;-13.62;71.23
72762;SHT30;60886;55.034;73.150;2022-12-29T06:05:22;-13.58;71.30
72762;SHT30;60886;55.034;73.150;2022-12-29T06:07:48;-13.58;71.00
72762;SHT30;60886;55.034;73.150;2022-12-29T06:10:16;-13.51;70.68
72762;SHT30;60886;55.034;73.150;2022-12-29T06:12:54;-13.66;70.63
72762;SHT30;60886;55.034;73.150;2022-12-29T06:15:20;-13.69;71.76
72762;SHT30;60886;55.034;73.150;2022-12-29T06:17:49;-13.69;72.30
72762;SHT30;60886;55.034;73.150;2022-12-29T06:20:15;-13.69;72.66
72762;SHT30;60886;55.034;73.150;2022-12-29T06:22:42;-13.67;73.31
72762;SHT30;60886;55.034;73.150;2022-12-29T06:25:09;-13.61;73.32
72762;SHT30;60886;55.034;73.150;2022-12-29T06:27:36;-13.61;73.08
72762;SHT30;60886;55.034;73.150;2022-12-29T06:30:03;-13.49;73.43
72762;SHT30;60886;55.034;73.150;2022-12-29T06:32:30;-13.44;73.14
72762;SHT30;60886;55.034;73.150;2022-12-29T06:35:03;-13.38;72.55
72762;SHT30;60886;55.034;73.150;2022-12-29T06:37:33;-13.45;72.36
72762;SHT30;60886;55.034;73.150;2022-12-29T06:40:02;-13.42;72.12
72762;SHT30;60886;55.034;73.150;2022-12-29T06:42:42;-13.39;71.66
72762;SHT30;60886;55.034;73.150;2022-12-29T06:45:41;-13.31;72.10
72762;SHT30;60886;55.034;73.150;2022-12-29T06:48:14;-13.38;71.97
72762;SHT30;60886;55.034;73.150;2022-12-29T06:50:51;-13.39;72.38
72762;SHT30;60886;55.034;73.150;2022-12-29T06:53:20;-13.32;72.13
72762;SHT30;60886;55.034;73.150;2022-12-29T06:55:46;-13.30;71.79
72762;SHT30;60886;55.034;73.150;2022-12-29T06:58:14;-13.21;71.70
72762;SHT30;60886;55.034;73.150;2022-12-29T07:00:40;-13.18;71.38
72762;SHT30;60886;55.034;73.150;2022-12-29T07:03:06;-12.99;71.46
72762;SHT30;60886;55.034;73.150;2022-12-29T07:05:33;-12.97;71.01
72762;SHT30;60886;55.034;73.150;2022-12-29T07:08:00;-12.87;70.90
72762;SHT30;60886;55.034;73.150;2022-12-29T07:10:26;-12.81;70.62
72762;SHT30;60886;55.034;73.150;2022-12-29T07:12:52;-12.73;70.42
72762;SHT30;60886;55.034;73.150;2022-12-29T07:15:28;-12.70;70.52
72762;SHT30;60886;55.034;73.150;2022-12-29T07:17:55;-12.66;70.40
72762;SHT30;60886;55.034;73.150;2022-12-29T07:20:21;-12.59;70.29
72762;SHT30;60886;55.034;73.150;2022-12-29T07:22:57;-12.57;69.83
72762;SHT30;60886;55.034;73.150;2022-12-29T07:25:23;-12.57;69.82
72762;SHT30;60886;55.034;73.150;2022-12-29T07:27:54;-12.69;70.12
72762;SHT30;60886;55.034;73.150;2022-12-29T07:30:22;-12.67;70.31
72762;SHT30;60886;55.034;73.150;2022-12-29T07:32:48;-12.69;70.26
72762;SHT30;60886;55.034;73.150;2022-12-29T07:35:14;-12.65;70.32
72762;SHT30;60886;55.034;73.150;2022-12-29T07:37:41;-12.65;70.14
72762;SHT30;60886;55.034;73.150;2022-12-29T07:40:10;-12.56;70.14
72762;SHT30;60886;55.034;73.150;2022-12-29T07:42:36;-12.52;69.70
72762;SHT30;60886;55.034;73.150;2022-12-29T07:45:07;-12.55;69.05
72762;SHT30;60886;55.034;73.150;2022-12-29T07:47:48;-12.72;69.53
72762;SHT30;60886;55.034;73.150;2022-12-29T07:50:15;-12.80;69.92
72762;SHT30;60886;55.034;73.150;2022-12-29T07:52:42;-12.79;70.05
72762;SHT30;60886;55.034;73.150;2022-12-29T07:55:09;-12.76;70.08
72762;SHT30;60886;55.034;73.150;2022-12-29T07:57:35;-12.75;70.39
72762;SHT30;60886;55.034;73.150;2022-12-29T08:00:03;-12.70;70.68
72762;SHT30;60886;55.034;73.150;2022-12-29T08:02:39;-12.73;70.64
72762;SHT30;60886;55.034;73.150;2022-12-29T08:05:06;-12.72;70.70
72762;SHT30;60886;55.034;73.150;2022-12-29T08:07:32;-12.76;70.49
72762;SHT30;60886;55.034;73.150;2022-12-29T08:09:58;-12.66;70.44
72762;SHT30;60886;55.034;73.150;2022-12-29T08:12:25;-12.69;70.47
72762;SHT30;60886;55.034;73.150;2022-12-29T08:14:51;-12.79;70.78
72762;SHT30;60886;55.034;73.150;2022-12-29T08:17:17;-12.93;71.27
72762;SHT30;60886;55.034;73.150;2022-12-29T08:19:44;-12.99;71.44
72762;SHT30;60886;55.034;73.150;2022-12-29T08:22:11;-13.01;71.52
72762;SHT30;60886;55.034;73.150;2022-12-29T08:24:38;-12.97;71.05
72762;SHT30;60886;55.034;73.150;2022-12-29T08:27:05;-12.97;71.54
72762;SHT30;60886;55.034;73.150;2022-12-29T08:29:31;-12.89;71.56
72762;SHT30;60886;55.034;73.150;2022-12-29T08:31:57;-12.87;72.00
72762;SHT30;60886;55.034;73.150;2022-12-29T08:34:31;-12.89;72.24
72762;SHT30;60886;55.034;73.150;2022-12-29T08:36:58;-12.96;72.52
72762;SHT30;60886;55.034;73.150;2022-12-29T08:39:25;-12.94;72.72
72762;SHT30;60886;55.034;73.150;2022-12-29T08:41:51;-12.90;72.59
72762;SHT30;60886;55.034;73.150;2022-12-29T08:44:18;-12.94;72.45
72762;SHT30;60886;55.034;73.150;2022-12-29T08:46:44;-12.97;72.65
72762;SHT30;60886;55.034;73.150;2022-12-29T08:49:10;-12.97;72.44
72762;SHT30;60886;55.034;73.150;2022-12-29T08:51:36;-12.96;72.19
72762;SHT30;60886;55.034;73.150;2022-12-29T08:54:03;-12.94;71.26
72762;SHT30;60886;55.034;73.150;2022-12-29T08:56:30;-12.97;70.49
72762;SHT30;60886;55.034;73.150;2022-12-29T08:58:59;-12.99;70.12
72762;SHT30;60886;55.034;73.150;2022-12-29T09:01:30;-13.03;70.06
72762;SHT30;60886;55.034;73.150;2022-12-29T09:03:59;-13.06;69.59
72762;SHT30;60886;55.034;73.150;2022-12-29T09:06:26;-13.14;69.47
72762;SHT30;60886;55.034;73.150;2022-12-29T09:08:54;-13.12;70.45
72762;SHT30;60886;55.034;73.150;2022-12-29T09:11:25;-13.20;71.08
72762;SHT30;60886;55.034;73.150;2022-12-29T09:13:52;-13.18;72.03
72762;SHT30;60886;55.034;73.150;2022-12-29T09:16:23;-13.15;71.39
72762;SHT30;60886;55.034;73.150;2022-12-29T09:18:49;-13.11;70.97
72762;SHT30;60886;55.034;73.150;2022-12-29T09:21:16;-13.15;71.28
72762;SHT30;60886;55.034;73.150;2022-12-29T09:23:51;-13.17;71.19
72762;SHT30;60886;55.034;73.150;2022-12-29T09:26:17;-13.28;71.95
72762;SHT30;60886;55.034;73.150;2022-12-29T09:28:44;-13.32;72.15
72762;SHT30;60886;55.034;73.150;2022-12-29T09:31:10;-13.35;72.08
72762;SHT30;60886;55.034;73.150;2022-12-29T09:33:36;-13.46;71.69
72762;SHT30;60886;55.034;73.150;2022-12-29T09:36:03;-13.48;71.62
72762;SHT30;60886;55.034;73.150;2022-12-29T09:38:31;-13.46;71.63
72762;SHT30;60886;55.034;73.150;2022-12-29T09:41:29;-13.52;72.31
72762;SHT30;60886;55.034;73.150;2022-12-29T09:44:37;-13.55;72.26
72762;SHT30;60886;55.034;73.150;2022-12-29T09:46:58;-13.61;73.02
72762;SHT30;60886;55.034;73.150;2022-12-29T09:49:46;-13.54;73.27
72762;SHT30;60886;55.034;73.150;2022-12-29T09:52:36;-13.46;73.11
72762;SHT30;60886;55.034;73.150;2022-12-29T09:55:17;-13.45;72.82
72762;SHT30;60886;55.034;73.150;2022-12-29T09:58:04;-13.48;72.45
72762;SHT30;60886;55.034;73.150;2022-12-29T10:00:54;-13.56;72.03
72762;SHT30;60886;55.034;73.150;2022-12-29T10:03:36;-13.59;72.83
72762;SHT30;60886;55.034;73.150;2022-12-29T10:06:17;-13.63;73.02
72762;SHT30;60886;55.034;73.150;2022-12-29T10:12:28;-13.69;72.64
72762;SHT30;60886;55.034;73.150;2022-12-29T10:15:33;-13.75;72.32
72762;SHT30;60886;55.034;73.150;2022-12-29T10:18:19;-13.76;72.93
72762;SHT30;60886;55.034;73.150;2022-12-29T10:23:36;-13.93;73.08
72762;SHT30;60886;55.034;73.150;2022-12-29T10:26:10;-14.02;72.92
72762;SHT30;60886;55.034;73.150;2022-12-29T10:31:28;-14.07;73.59
72762;SHT30;60886;55.034;73.150;2022-12-29T10:36:48;-13.93;73.23
72762;SHT30;60886;55.034;73.150;2022-12-29T10:42:29;-14.03;72.41
72762;SHT30;60886;55.034;73.150;2022-12-29T10:45:14;-14.06;72.57
72762;SHT30;60886;55.034;73.150;2022-12-29T10:47:57;-14.12;72.07
72762;SHT30;60886;55.034;73.150;2022-12-29T10:50:30;-14.12;70.95
72762;SHT30;60886;55.034;73.150;2022-12-29T10:53:02;-14.17;70.65
72762;SHT30;60886;55.034;73.150;2022-12-29T10:55:36;-14.26;70.37
72762;SHT30;60886;55.034;73.150;2022-12-29T10:58:06;-14.38;70.36
72762;SHT30;60886;55.034;73.150;2022-12-29T11:00:33;-14.42;70.30
72762;SHT30;60886;55.034;73.150;2022-12-29T11:05:57;-14.52;69.57
72762;SHT30;60886;55.034;73.150;2022-12-29T11:08:36;-14.57;70.23
72762;SHT30;60886;55.034;73.150;2022-12-29T11:11:08;-14.51;71.25
72762;SHT30;60886;55.034;73.150;2022-12-29T11:13:50;-14.50;70.62
72762;SHT30;60886;55.034;73.150;2022-12-29T11:16:32;-14.47;69.92
72762;SHT30;60886;55.034;73.150;2022-12-29T11:19:04;-14.45;69.60
72762;SHT30;60886;55.034;73.150;2022-12-29T11:21:38;-14.52;70.25
72762;SHT30;60886;55.034;73.150;2022-12-29T11:24:37;-14.55;69.94
72762;SHT30;60886;55.034;73.150;2022-12-29T11:27:29;-14.57;70.50
72762;SHT30;60886;55.034;73.150;2022-12-29T11:29:55;-14.55;70.03
72762;SHT30;60886;55.034;73.150;2022-12-29T11:32:28;-14.57;70.06
72762;SHT30;60886;55.034;73.150;2022-12-29T11:34:58;-14.64;70.14
72762;SHT30;60886;55.034;73.150;2022-12-29T11:37:38;-14.58;69.75
72762;SHT30;60886;55.034;73.150;2022-12-29T11:40:06;-14.60;69.90
72762;SHT30;60886;55.034;73.150;2022-12-29T11:42:50;-14.65;70.57
72762;SHT30;60886;55.034;73.150;2022-12-29T11:45:19;-14.72;70.90
72762;SHT30;60886;55.034;73.150;2022-12-29T11:47:56;-14.72;71.29
72762;SHT30;60886;55.034;73.150;2022-12-29T11:50:27;-14.69;71.98
72762;SHT30;60886;55.034;73.150;2022-12-29T11:53:20;-14.69;72.09
72762;SHT30;60886;55.034;73.150;2022-12-29T11:55:58;-14.68;72.27
72762;SHT30;60886;55.034;73.150;2022-12-29T11:58:31;-14.69;72.62
72762;SHT30;60886;55.034;73.150;2022-12-29T12:01:07;-14.78;72.62
72762;SHT30;60886;55.034;73.150;2022-12-29T12:03:38;-14.71;72.70
72762;SHT30;60886;55.034;73.150;2022-12-29T12:06:15;-14.76;72.69
72762;SHT30;60886;55.034;73.150;2022-12-29T12:08:56;-14.71;72.92
72762;SHT30;60886;55.034;73.150;2022-12-29T12:11:37;-14.71;73.16
72762;SHT30;60886;55.034;73.150;2022-12-29T12:14:38;-14.71;73.94
72762;SHT30;60886;55.034;73.150;2022-12-29T12:17:33;-14.67;73.95
72762;SHT30;60886;55.034;73.150;2022-12-29T12:29:07;-14.72;74.19
72762;SHT30;60886;55.034;73.150;2022-12-29T12:31:50;-14.69;73.17
72762;SHT30;60886;55.034;73.150;2022-12-29T12:34:51;-14.75;73.05
72762;SHT30;60886;55.034;73.150;2022-12-29T12:40:15;-14.85;74.35
72762;SHT30;60886;55.034;73.150;2022-12-29T13:00:08;-15.07;76.17
72762;SHT30;60886;55.034;73.150;2022-12-29T13:08:32;-15.13;74.84
72762;SHT30;60886;55.034;73.150;2022-12-29T13:13:58;-15.26;75.22
72762;SHT30;60886;55.034;73.150;2022-12-29T13:20:07;-15.13;74.07
72762;SHT30;60886;55.034;73.150;2022-12-29T13:30:33;-15.26;75.68
72762;SHT30;60886;55.034;73.150;2022-12-29T13:38:39;-15.34;75.06
72762;SHT30;60886;55.034;73.150;2022-12-29T13:44:02;-15.48;75.36
72762;SHT30;60886;55.034;73.150;2022-12-29T13:46:36;-15.51;75.41
72762;SHT30;60886;55.034;73.150;2022-12-29T13:51:48;-15.50;75.73
72762;SHT30;60886;55.034;73.150;2022-12-29T13:54:42;-15.46;75.82
72762;SHT30;60886;55.034;73.150;2022-12-29T14:00:18;-15.48;75.59
72762;SHT30;60886;55.034;73.150;2022-12-29T14:08:14;-15.55;75.96
72762;SHT30;60886;55.034;73.150;2022-12-29T14:10:49;-15.54;76.34
72762;SHT30;60886;55.034;73.150;2022-12-29T14:13:18;-15.51;76.30
72762;SHT30;60886;55.034;73.150;2022-12-29T14:15:54;-15.51;76.37
72762;SHT30;60886;55.034;73.150;2022-12-29T14:18:25;-15.46;76.40
72762;SHT30;60886;55.034;73.150;2022-12-29T14:23:46;-15.46;76.62
72762;SHT30;60886;55.034;73.150;2022-12-29T14:29:16;-15.43;76.65
72762;SHT30;60886;55.034;73.150;2022-12-29T14:31:47;-15.37;76.63
72762;SHT30;60886;55.034;73.150;2022-12-29T14:34:16;-15.36;76.77
72762;SHT30;60886;55.034;73.150;2022-12-29T14:39:43;-15.31;76.64
72762;SHT30;60886;55.034;73.150;2022-12-29T14:42:19;-15.33;76.60
72762;SHT30;60886;55.034;73.150;2022-12-29T14:47:35;-15.37;76.38
72762;SHT30;60886;55.034;73.150;2022-12-29T14:52:52;-15.36;76.58
72762;SHT30;60886;55.034;73.150;2022-12-29T14:55:48;-15.36;76.55
72762;SHT30;60886;55.034;73.150;2022-12-29T14:58:31;-15.31;76.52
72762;SHT30;60886;55.034;73.150;2022-12-29T15:01:03;-15.31;76.69
72762;SHT30;60886;55.034;73.150;2022-12-29T15:03:32;-15.38;75.60
72762;SHT30;60886;55.034;73.150;2022-12-29T15:06:09;-15.41;75.24
72762;SHT30;60886;55.034;73.150;2022-12-29T15:08:44;-15.43;75.18
72762;SHT30;60886;55.034;73.150;2022-12-29T15:11:17;-15.41;75.59
72762;SHT30;60886;55.034;73.150;2022-12-29T15:13:44;-15.40;76.17
72762;SHT30;60886;55.034;73.150;2022-12-29T15:16:30;-15.37;76.39
72762;SHT30;60886;55.034;73.150;2022-12-29T15:19:02;-15.40;76.24
72762;SHT30;60886;55.034;73.150;2022-12-29T15:21:33;-15.43;75.90
72762;SHT30;60886;55.034;73.150;2022-12-29T15:24:00;-15.44;75.37
72762;SHT30;60886;55.034;73.150;2022-12-29T15:26:51;-15.38;76.40
72762;SHT30;60886;55.034;73.150;2022-12-29T15:29:48;-15.28;76.74
72762;SHT30;60886;55.034;73.150;2022-12-29T15:32:23;-15.33;76.45
72762;SHT30;60886;55.034;73.150;2022-12-29T15:34:55;-15.33;76.31
72762;SHT30;60886;55.034;73.150;2022-12-29T15:37:23;-15.37;76.32
72762;SHT30;60886;55.034;73.150;2022-12-29T15:39:54;-15.51;76.95
72762;SHT30;60886;55.034;73.150;2022-12-29T15:42:52;-15.58;77.11
72762;SHT30;60886;55.034;73.150;2022-12-29T15:45:33;-15.65;77.40
72762;SHT30;60886;55.034;73.150;2022-12-29T15:48:00;-15.57;77.28
72762;SHT30;60886;55.034;73.150;2022-12-29T15:50:29;-15.55;77.33
72762;SHT30;60886;55.034;73.150;2022-12-29T15:53:00;-15.51;77.04
72762;SHT30;60886;55.034;73.150;2022-12-29T15:55:36;-15.60;77.04
72762;SHT30;60886;55.034;73.150;2022-12-29T15:58:17;-15.64;76.99
72762;SHT30;60886;55.034;73.150;2022-12-29T16:00:54;-15.67;77.04
72762;SHT30;60886;55.034;73.150;2022-12-29T16:03:29;-15.71;76.66
72762;SHT30;60886;55.034;73.150;2022-12-29T16:06:09;-15.82;76.65
72762;SHT30;60886;55.034;73.150;2022-12-29T16:08:39;-15.83;76.90
72762;SHT30;60886;55.034;73.150;2022-12-29T16:11:33;-15.85;76.84
72762;SHT30;60886;55.034;73.150;2022-12-29T16:14:21;-15.95;76.33
72762;SHT30;60886;55.034;73.150;2022-12-29T16:16:59;-15.99;76.20
72762;SHT30;60886;55.034;73.150;2022-12-29T16:19:41;-16.06;76.40
72762;SHT30;60886;55.034;73.150;2022-12-29T16:22:15;-16.02;75.96
72762;SHT30;60886;55.034;73.150;2022-12-29T16:24:43;-16.08;75.96
72762;SHT30;60886;55.034;73.150;2022-12-29T16:27:22;-16.09;75.89
72762;SHT30;60886;55.034;73.150;2022-12-29T16:29:54;-16.05;75.90
72762;SHT30;60886;55.034;73.150;2022-12-29T16:32:31;-16.19;75.75
72762;SHT30;60886;55.034;73.150;2022-12-29T16:35:28;-16.32;76.66
72762;SHT30;60886;55.034;73.150;2022-12-29T16:38:21;-16.32;76.01
72762;SHT30;60886;55.034;73.150;2022-12-29T16:40:51;-16.39;75.08
72762;SHT30;60886;55.034;73.150;2022-12-29T16:43:26;-16.43;75.26
72762;SHT30;60886;55.034;73.150;2022-12-29T16:51:04;-16.54;74.08
72762;SHT30;60886;55.034;73.150;2022-12-29T16:53:40;-16.57;73.93
72762;SHT30;60886;55.034;73.150;2022-12-29T16:56:19;-16.47;75.22
72762;SHT30;60886;55.034;73.150;2022-12-29T16:59:04;-16.43;75.85
72762;SHT30;60886;55.034;73.150;2022-12-29T17:01:35;-16.39;75.66
72762;SHT30;60886;55.034;73.150;2022-12-29T17:04:06;-16.47;75.96
72762;SHT30;60886;55.034;73.150;2022-12-29T17:06:40;-16.48;76.10
72762;SHT30;60886;55.034;73.150;2022-12-29T17:11:59;-16.47;76.28
72762;SHT30;60886;55.034;73.150;2022-12-29T17:17:15;-16.46;76.21
72762;SHT30;60886;55.034;73.150;2022-12-29T17:19:48;-16.47;76.21
72762;SHT30;60886;55.034;73.150;2022-12-29T17:22:23;-16.54;76.32
72762;SHT30;60886;55.034;73.150;2022-12-29T17:24:52;-16.53;76.58
72762;SHT30;60886;55.034;73.150;2022-12-29T17:27:52;-16.44;76.70
72762;SHT30;60886;55.034;73.150;2022-12-29T17:30:25;-16.34;76.47
72762;SHT30;60886;55.034;73.150;2022-12-29T17:32:57;-16.33;76.36
72762;SHT30;60886;55.034;73.150;2022-12-29T17:35:34;-16.29;76.42
72762;SHT30;60886;55.034;73.150;2022-12-29T17:38:01;-16.32;76.18
72762;SHT30;60886;55.034;73.150;2022-12-29T17:40:32;-16.37;76.31
72762;SHT30;60886;55.034;73.150;2022-12-29T17:42:59;-16.37;76.33
72762;SHT30;60886;55.034;73.150;2022-12-29T17:45:28;-16.32;76.28
72762;SHT30;60886;55.034;73.150;2022-12-29T17:47:56;-16.29;76.29
72762;SHT30;60886;55.034;73.150;2022-12-29T17:50:28;-16.29;76.12
72762;SHT30;60886;55.034;73.150;2022-12-29T17:53:10;-16.41;76.25
72762;SHT30;60886;55.034;73.150;2022-12-29T17:55:37;-16.40;76.45
72762;SHT30;60886;55.034;73.150;2022-12-29T17:58:15;-16.34;76.21
72762;SHT30;60886;55.034;73.150;2022-12-29T18:00:50;-16.32;76.01
72762;SHT30;60886;55.034;73.150;2022-12-29T18:03:20;-16.30;75.38
72762;SHT30;60886;55.034;73.150;2022-12-29T18:05:57;-16.50;75.30